Time;durP1;ratioP1;P1;durP2;ratioP2;P2;SDS_P1;SDS_P2;PMS_P1;PMS_P2;Temp;Humidity;BMP_temperature;BMP_pressure;BME280_temperature;BME280_humidity;BME280_pressure;Samples;Min_cycle;Max_cycle;Signal;HPM_P1;HPM_P2
2023/03/14 00:01:52;;;;;;;34.67;5.82;;;8.80;99.90;;;;;;5063317;28;20040;-73
2023/03/14 00:04:18;;;;;;;27.83;5.57;;;8.80;99.90;;;;;;5062983;28;20068;-72
2023/03/14 00:06:44;;;;;;;34.25;6.32;;;8.80;99.90;;;;;;5067361;28;20378;-72
2023/03/14 00:09:10;;;;;;;20.45;4.80;;;8.80;99.90;;;;;;5074473;28;20105;-72
2023/03/14 00:11:40;;;;;;;37.15;7.32;;;8.80;99.90;;;;;;5061816;28;20038;-71
2023/03/14 00:14:05;;;;;;;26.52;5.55;;;8.90;99.90;;;;;;5071761;28;20466;-72
2023/03/14 00:16:31;;;;;;;29.42;5.80;;;8.90;99.90;;;;;;5072991;28;20078;-72
2023/03/14 00:18:59;;;;;;;27.27;5.55;;;8.90;99.90;;;;;;5073725;28;20127;-72
2023/03/14 00:21:25;;;;;;;29.50;5.05;;;9.00;99.90;;;;;;5060896;28;20049;-72
2023/03/14 00:23:51;;;;;;;24.90;5.38;;;9.00;99.90;;;;;;5053794;28;20045;-72
2023/03/14 00:26:20;;;;;;;28.02;5.30;;;9.00;99.90;;;;;;5055310;28;20037;-73
2023/03/14 00:28:46;;;;;;;28.50;5.22;;;9.10;99.90;;;;;;5071984;28;20052;-72
2023/03/14 00:31:14;;;;;;;32.53;6.35;;;9.10;99.90;;;;;;5070860;28;20093;-71
2023/03/14 00:33:40;;;;;;;;;;;9.20;99.90;;;;;;5072192;28;20048;-71
2023/03/14 00:36:11;;;;;;;29.33;4.55;;;9.20;99.90;;;;;;5073954;28;19929;-72
2023/03/14 00:38:39;;;;;;;26.77;4.85;;;9.20;99.90;;;;;;5059600;28;20052;-72
2023/03/14 00:41:07;;;;;;;21.65;4.70;;;9.20;99.90;;;;;;5069898;28;20040;-72
2023/03/14 00:43:33;;;;;;;;;;;9.20;99.90;;;;;;5064515;28;20060;-72
2023/03/14 00:45:58;;;;;;;27.20;4.93;;;9.10;99.90;;;;;;5061974;28;19967;-70
2023/03/14 00:48:24;;;;;;;28.38;4.75;;;9.20;99.90;;;;;;5069262;28;20041;-71
2023/03/14 00:50:50;;;;;;;30.45;5.55;;;9.20;99.90;;;;;;5070752;28;20148;-72
2023/03/14 00:53:16;;;;;;;33.55;5.57;;;9.10;99.90;;;;;;5050604;28;20037;-72
2023/03/14 00:55:44;;;;;;;24.45;4.63;;;9.30;99.90;;;;;;5085232;28;20040;-72
2023/03/14 00:58:12;;;;;;;29.35;5.07;;;9.20;99.90;;;;;;5067914;28;20047;-72
2023/03/14 01:00:37;;;;;;;26.42;4.18;;;9.20;99.90;;;;;;5065913;28;20068;-72
2023/03/14 01:03:04;;;;;;;25.65;4.90;;;9.10;99.90;;;;;;5065563;28;20072;-72
2023/03/14 01:05:30;;;;;;;22.38;4.97;;;9.20;99.90;;;;;;5069449;28;20040;-72
2023/03/14 01:07:55;;;;;;;20.50;3.95;;;9.20;99.90;;;;;;5071249;28;20051;-72
2023/03/14 01:10:21;;;;;;;21.77;5.18;;;9.20;99.90;;;;;;5066950;28;20093;-72
2023/03/14 01:12:47;;;;;;;25.40;5.75;;;9.10;99.90;;;;;;5064835;28;20119;-71
2023/03/14 01:15:12;;;;;;;24.95;5.03;;;9.10;99.90;;;;;;5066061;28;20631;-73
2023/03/14 01:17:39;;;;;;;27.08;5.43;;;9.20;99.90;;;;;;5055346;28;20037;-72
2023/03/14 01:20:08;;;;;;;23.88;4.47;;;9.20;99.90;;;;;;5069789;28;20032;-71
2023/03/14 01:22:35;;;;;;;22.85;4.80;;;9.30;99.90;;;;;;5072562;28;20044;-71
2023/03/14 01:25:01;;;;;;;25.05;4.15;;;9.30;99.90;;;;;;5066435;28;20091;-72
2023/03/14 01:27:26;;;;;;;20.13;4.60;;;9.50;99.90;;;;;;5066623;28;20086;-72
2023/03/14 01:29:52;;;;;;;24.52;4.18;;;9.50;99.90;;;;;;5071194;28;20505;-71
2023/03/14 01:32:18;;;;;;;24.13;4.88;;;9.50;99.90;;;;;;5065955;28;20037;-71
2023/03/14 01:34:43;;;;;;;23.98;3.80;;;9.70;99.90;;;;;;5066576;28;20051;-72
2023/03/14 01:37:11;;;;;;;24.50;4.60;;;9.60;99.90;;;;;;5068662;28;20460;-73
2023/03/14 01:39:37;;;;;;;20.08;4.15;;;9.70;99.90;;;;;;5057439;28;20041;-71
2023/03/14 01:42:03;;;;;;;23.80;5.10;;;9.70;99.90;;;;;;5065384;28;20040;-72
2023/03/14 01:45:06;;;;;;;27.00;5.28;;;9.80;99.90;;;;;;5060630;28;20041;-72
2023/03/14 01:47:32;;;;;;;22.67;4.03;;;9.80;99.90;;;;;;5065550;28;20064;-72
2023/03/14 01:50:10;;;;;;;16.85;3.65;;;9.90;99.90;;;;;;5066964;28;20045;-73
2023/03/14 01:52:49;;;;;;;23.90;4.90;;;9.90;99.90;;;;;;5064108;28;20083;-72
2023/03/14 01:55:23;;;;;;;18.25;4.63;;;9.90;99.90;;;;;;5067524;28;20390;-71
2023/03/14 01:58:00;;;;;;;13.25;3.47;;;9.90;99.90;;;;;;5065068;28;20122;-70
2023/03/14 02:00:26;;;;;;;19.25;4.75;;;9.90;99.90;;;;;;5070989;28;20123;-70
2023/03/14 02:02:57;;;;;;;14.32;3.33;;;9.90;99.90;;;;;;5068389;28;20119;-72
2023/03/14 02:05:30;;;;;;;14.95;3.63;;;9.90;99.90;;;;;;5069303;28;20045;-72
2023/03/14 02:07:58;;;;;;;22.90;4.22;;;10.00;99.90;;;;;;5060320;28;20041;-72
2023/03/14 02:10:36;;;;;;;17.80;3.92;;;10.00;99.90;;;;;;5069943;28;20123;-71
2023/03/14 02:13:04;;;;;;;19.40;3.65;;;10.00;99.90;;;;;;5070183;28;20424;-71
2023/03/14 02:15:31;;;;;;;16.38;3.60;;;9.90;99.90;;;;;;5071864;28;20044;-72
2023/03/14 02:17:57;;;;;;;27.40;4.80;;;10.00;99.90;;;;;;5058719;28;20128;-72
2023/03/14 02:20:26;;;;;;;17.75;3.53;;;9.90;99.90;;;;;;5067451;28;20354;-72
2023/03/14 02:22:52;;;;;;;15.52;3.50;;;9.90;99.90;;;;;;5069567;28;20090;-72
2023/03/14 02:25:48;;;;;;;17.15;3.53;;;9.80;99.90;;;;;;5069308;28;20382;-72
2023/03/14 02:28:16;;;;;;;20.23;4.15;;;9.80;99.90;;;;;;5070592;28;20040;-72
2023/03/14 02:30:43;;;;;;;19.98;4.50;;;9.80;99.90;;;;;;5053754;28;20398;-71
2023/03/14 02:33:15;;;;;;;12.55;3.08;;;9.70;99.90;;;;;;5061806;28;20081;-72
2023/03/14 02:35:51;;;;;;;19.58;3.60;;;9.70;99.90;;;;;;5067798;28;20562;-72
2023/03/14 02:38:41;;;;;;;15.95;3.28;;;9.70;99.90;;;;;;5059934;28;20095;-71
2023/03/14 02:41:07;;;;;;;13.02;2.95;;;9.70;99.90;;;;;;5065534;28;20037;-72
2023/03/14 02:43:33;;;;;;;20.92;3.53;;;9.70;99.90;;;;;;5068493;28;20086;-71
2023/03/14 02:46:01;;;;;;;15.55;3.10;;;9.70;99.90;;;;;;5065593;28;20044;-72
2023/03/14 02:48:35;;;;;;;13.88;3.25;;;9.70;99.90;;;;;;5073337;28;20438;-72
2023/03/14 02:51:01;;;;;;;25.08;3.90;;;9.70;99.90;;;;;;5070200;28;20053;-72
2023/03/14 02:53:33;;;;;;;18.27;3.22;;;9.60;99.90;;;;;;5069504;28;20049;-72
2023/03/14 02:55:59;;;;;;;19.85;3.22;;;9.70;99.90;;;;;;5050908;28;20033;-72
2023/03/14 02:58:25;;;;;;;17.45;3.17;;;9.60;99.90;;;;;;5068328;28;20044;-72
2023/03/14 03:00:50;;;;;;;16.45;3.33;;;9.60;99.90;;;;;;5050542;28;20045;-72
2023/03/14 03:03:16;;;;;;;14.65;2.85;;;9.50;99.90;;;;;;5071430;28;20182;-72
2023/03/14 03:05:44;;;;;;;21.95;4.07;;;9.50;99.90;;;;;;5070195;28;20390;-72
2023/03/14 03:08:10;;;;;;;;;;;9.50;99.90;;;;;;5069765;28;20040;-72
2023/03/14 03:10:35;;;;;;;12.90;3.30;;;9.50;99.90;;;;;;5071326;28;20395;-71
2023/03/14 03:13:01;;;;;;;16.13;3.53;;;9.40;99.90;;;;;;5069734;28;20444;-71
2023/03/14 03:15:28;;;;;;;17.92;3.80;;;9.40;99.90;;;;;;5044610;28;20056;-71
2023/03/14 03:17:53;;;;;;;19.35;4.22;;;9.30;99.90;;;;;;5066870;28;20037;-72
2023/03/14 03:20:19;;;;;;;17.02;3.72;;;9.30;99.90;;;;;;5060978;28;20055;-71
2023/03/14 03:22:44;;;;;;;21.83;3.90;;;9.30;99.90;;;;;;5071753;28;20424;-71
2023/03/14 03:25:10;;;;;;;16.17;3.83;;;9.20;99.90;;;;;;5059900;28;20036;-71
2023/03/14 03:27:37;;;;;;;22.05;4.97;;;9.20;99.90;;;;;;5068060;28;20041;-71
2023/03/14 03:30:05;;;;;;;19.40;4.32;;;9.20;99.90;;;;;;5066615;28;20502;-71
2023/03/14 03:32:30;;;;;;;19.75;4.13;;;9.20;99.90;;;;;;5073542;28;20051;-71
2023/03/14 03:34:56;;;;;;;19.52;4.03;;;9.20;99.90;;;;;;5070178;28;20119;-71
2023/03/14 03:37:22;;;;;;;18.85;4.10;;;9.00;99.90;;;;;;5074114;28;20132;-71
2023/03/14 03:39:50;;;;;;;13.68;3.42;;;9.10;99.90;;;;;;5069329;28;20098;-72
2023/03/14 03:42:16;;;;;;;11.75;3.78;;;9.00;99.90;;;;;;5054916;28;20041;-71
2023/03/14 03:44:41;;;;;;;18.63;4.38;;;9.00;99.90;;;;;;5066353;28;20048;-70
2023/03/14 03:47:07;;;;;;;16.90;4.50;;;8.90;99.90;;;;;;5055334;28;20067;-71
2023/03/14 03:49:33;;;;;;;19.63;3.97;;;8.90;99.90;;;;;;5070942;28;20052;-71
2023/03/14 03:51:59;;;;;;;19.27;3.83;;;9.00;99.90;;;;;;5072021;28;20048;-71
2023/03/14 03:54:25;;;;;;;15.48;4.40;;;8.90;99.90;;;;;;5066338;28;20131;-71
2023/03/14 03:56:51;;;;;;;19.08;4.43;;;8.90;99.90;;;;;;5071192;28;20044;-70
2023/03/14 03:59:17;;;;;;;22.88;4.55;;;8.90;99.90;;;;;;5072920;28;20175;-70
2023/03/14 04:01:43;;;;;;;22.65;4.20;;;9.00;99.90;;;;;;5070010;28;20417;-71
2023/03/14 04:04:08;;;;;;;16.65;4.03;;;8.90;99.90;;;;;;5071323;28;20040;-72
2023/03/14 04:06:34;;;;;;;24.08;4.85;;;8.90;99.90;;;;;;5052813;28;20049;-71
2023/03/14 04:09:00;;;;;;;23.13;5.40;;;9.60;99.90;;;;;;5070200;28;20041;-71
2023/03/14 04:11:25;;;;;;;25.73;4.80;;;8.90;99.90;;;;;;5070283;28;20119;-72
2023/03/14 04:13:51;;;;;;;21.38;4.63;;;8.90;99.90;;;;;;5067388;28;20330;-71
2023/03/14 04:16:23;;;;;;;27.00;5.68;;;9.00;99.90;;;;;;5072075;28;20045;-71
2023/03/14 04:18:49;;;;;;;30.73;5.75;;;8.90;99.90;;;;;;5069601;28;20041;-71
2023/03/14 04:21:15;;;;;;;24.15;5.38;;;8.90;99.90;;;;;;5065768;28;20056;-70
2023/03/14 04:23:41;;;;;;;21.27;5.45;;;8.90;99.90;;;;;;5071697;28;20036;-71
2023/03/14 04:26:07;;;;;;;29.25;5.55;;;8.90;99.90;;;;;;5065689;28;20051;-71
2023/03/14 04:28:32;;;;;;;26.60;5.50;;;9.00;99.90;;;;;;5074024;28;20072;-70
2023/03/14 04:30:58;;;;;;;27.40;5.50;;;8.90;99.90;;;;;;5066744;28;20041;-70
2023/03/14 04:33:24;;;;;;;25.80;5.65;;;8.90;99.90;;;;;;5068945;28;20455;-71
2023/03/14 04:35:54;;;;;;;23.23;6.63;;;8.80;99.90;;;;;;5067506;28;20033;-71
2023/03/14 04:38:19;;;;;;;17.17;5.70;;;8.80;99.90;;;;;;5068676;28;20099;-71
2023/03/14 04:40:45;;;;;;;23.83;6.55;;;8.90;99.90;;;;;;5065835;28;20521;-71
2023/03/14 04:43:11;;;;;;;20.63;6.13;;;8.80;99.90;;;;;;5067650;28;20037;-71
2023/03/14 04:45:41;;;;;;;23.80;6.60;;;8.80;99.90;;;;;;5062339;28;20072;-71
2023/03/14 04:48:07;;;;;;;25.13;7.45;;;8.80;99.90;;;;;;5070405;28;20032;-71
2023/03/14 04:50:32;;;;;;;22.15;7.32;;;8.80;99.90;;;;;;5064406;28;20052;-71
2023/03/14 04:52:58;;;;;;;25.92;8.00;;;8.80;99.90;;;;;;5066381;28;20054;-71
2023/03/14 04:55:23;;;;;;;25.13;8.02;;;8.80;99.90;;;;;;5065484;28;20045;-72
2023/03/14 04:57:49;;;;;;;27.30;8.10;;;8.70;99.90;;;;;;5068870;28;20032;-73
2023/03/14 05:00:17;;;;;;;23.25;8.35;;;8.70;99.90;;;;;;5067318;28;20036;-71
2023/03/14 05:02:43;;;;;;;20.65;7.35;;;8.70;99.90;;;;;;5072368;28;20040;-71
2023/03/14 05:05:09;;;;;;;23.70;7.75;;;8.70;99.90;;;;;;5067800;28;20044;-71
2023/03/14 05:07:35;;;;;;;22.92;7.95;;;8.70;99.90;;;;;;5070834;28;20123;-72
2023/03/14 05:10:00;;;;;;;27.38;9.30;;;8.70;99.90;;;;;;5066611;28;20127;-71
2023/03/14 05:12:26;;;;;;;24.73;8.88;;;8.70;99.90;;;;;;5069672;28;20033;-75
2023/03/14 05:14:52;;;;;;;19.33;8.00;;;8.70;99.90;;;;;;5067785;28;20048;-71
2023/03/14 05:17:18;;;;;;;22.73;8.85;;;8.70;99.90;;;;;;5066259;28;20032;-71
2023/03/14 05:19:44;;;;;;;19.40;8.43;;;8.70;99.90;;;;;;5065446;28;20033;-71
2023/03/14 05:22:10;;;;;;;24.83;9.13;;;8.60;99.90;;;;;;5067679;28;20098;-71
2023/03/14 05:24:36;;;;;;;24.77;7.82;;;8.60;99.90;;;;;;5070383;28;20138;-71
2023/03/14 05:27:02;;;;;;;19.08;7.95;;;8.60;99.90;;;;;;5055682;28;20040;-72
2023/03/14 05:29:28;;;;;;;23.60;8.75;;;8.60;99.90;;;;;;5069218;28;20127;-72
2023/03/14 05:31:54;;;;;;;19.48;7.55;;;8.60;99.90;;;;;;5066351;28;20116;-73
2023/03/14 05:34:19;;;;;;;23.30;8.10;;;8.60;99.90;;;;;;5065577;28;20041;-71
2023/03/14 05:36:45;;;;;;;23.67;7.43;;;8.60;99.90;;;;;;5068081;28;20452;-73
2023/03/14 05:39:10;;;;;;;24.02;7.88;;;8.50;99.90;;;;;;5066713;28;20041;-72
2023/03/14 05:41:36;;;;;;;24.73;7.53;;;8.50;99.90;;;;;;5067511;28;20120;-72
2023/03/14 05:44:02;;;;;;;25.92;8.32;;;8.50;99.90;;;;;;5072420;28;20051;-72
2023/03/14 05:46:27;;;;;;;25.08;7.70;;;8.50;99.90;;;;;;5072169;28;20378;-72
2023/03/14 05:48:53;;;;;;;16.38;7.28;;;8.50;99.90;;;;;;5065433;28;20045;-72
2023/03/14 05:51:18;;;;;;;24.00;6.63;;;8.50;99.90;;;;;;5066821;28;20048;-72
2023/03/14 05:53:44;;;;;;;20.60;6.10;;;8.60;99.90;;;;;;5063542;28;20052;-72
2023/03/14 05:56:09;;;;;;;18.52;7.18;;;8.50;99.90;;;;;;5067939;28;20255;-72
2023/03/14 05:58:35;;;;;;;18.15;7.18;;;8.50;99.90;;;;;;5067131;28;20036;-72
2023/03/14 06:01:05;;;;;;;17.92;6.22;;;8.50;99.90;;;;;;5062297;28;20040;-72
2023/03/14 06:03:31;;;;;;;20.20;7.05;;;8.50;99.90;;;;;;5068654;28;20052;-72
2023/03/14 06:05:57;;;;;;;16.52;5.40;;;8.50;99.90;;;;;;5067688;28;20047;-72
2023/03/14 06:08:23;;;;;;;13.77;5.38;;;8.50;99.90;;;;;;5066751;28;20036;-71
2023/03/14 06:10:48;;;;;;;13.70;5.00;;;8.50;99.90;;;;;;5060139;28;20404;-71
2023/03/14 06:13:15;;;;;;;14.05;4.63;;;8.50;99.90;;;;;;5064862;28;20050;-70
2023/03/14 06:15:41;;;;;;;11.18;4.72;;;8.50;99.90;;;;;;5064118;28;20077;-71
2023/03/14 06:18:07;;;;;;;14.30;4.47;;;8.50;99.90;;;;;;5063362;28;20086;-71
2023/03/14 06:20:35;;;;;;;16.30;4.82;;;8.50;99.90;;;;;;5064094;28;20045;-71
2023/03/14 06:23:00;;;;;;;14.10;4.68;;;8.50;99.90;;;;;;5063625;28;20044;-71
2023/03/14 06:25:26;;;;;;;18.80;4.65;;;8.50;99.90;;;;;;5070300;28;20512;-71
2023/03/14 06:27:52;;;;;;;12.32;4.65;;;8.50;99.90;;;;;;5069400;28;20090;-72
2023/03/14 06:30:17;;;;;;;7.85;2.08;;;8.50;99.90;;;;;;5064177;28;20132;-71
2023/03/14 06:32:43;;;;;;;4.82;1.50;;;8.50;99.90;;;;;;5067462;28;20045;-70
2023/03/14 06:35:09;;;;;;;9.25;1.67;;;8.20;99.90;;;;;;5070035;28;20063;-71
2023/03/14 06:37:34;;;;;;;9.68;1.40;;;7.80;99.90;;;;;;5069555;28;20088;-71
2023/03/14 06:40:00;;;;;;;14.40;2.00;;;7.70;99.90;;;;;;5068112;28;20043;-70
2023/03/14 06:42:25;;;;;;;15.25;1.70;;;8.10;99.90;;;;;;5062312;28;20037;-70
2023/03/14 06:44:51;;;;;;;22.77;3.60;;;7.20;99.90;;;;;;5070708;28;20051;-71
2023/03/14 06:47:17;;;;;;;21.58;3.30;;;7.10;99.90;;;;;;5065103;28;20116;-71
2023/03/14 06:49:42;;;;;;;22.45;2.80;;;6.80;99.90;;;;;;5065585;28;20044;-70
2023/03/14 06:52:08;;;;;;;19.05;2.92;;;6.70;99.90;;;;;;5066955;28;20067;-69
2023/03/14 06:54:34;;;;;;;22.27;2.55;;;6.50;99.90;;;;;;5069162;28;20050;-70
2023/03/14 06:57:00;;;;;;;13.68;2.25;;;6.30;99.90;;;;;;5072092;28;20397;-69
2023/03/14 06:59:25;;;;;;;30.30;2.80;;;6.10;99.90;;;;;;5068883;28;20118;-71
2023/03/14 07:01:51;;;;;;;22.17;2.25;;;5.80;99.90;;;;;;5063384;28;20048;-71
2023/03/14 07:04:17;;;;;;;23.70;3.33;;;6.20;99.90;;;;;;5058882;28;20162;-70
2023/03/14 07:06:44;;;;;;;17.67;2.38;;;5.40;99.90;;;;;;5067107;28;20396;-71
2023/03/14 07:09:13;;;;;;;12.90;3.25;;;5.30;99.90;;;;;;5069742;28;20051;-71
2023/03/14 07:11:38;;;;;;;13.07;1.60;;;5.10;99.90;;;;;;5067880;28;20045;-72
2023/03/14 07:14:04;;;;;;;9.80;1.52;;;5.00;99.90;;;;;;5066427;28;20473;-72
2023/03/14 07:16:32;;;;;;;11.20;2.05;;;4.90;99.90;;;;;;5069043;28;20521;-72
2023/03/14 07:18:58;;;;;;;12.70;2.03;;;4.80;99.90;;;;;;5064269;28;20072;-71
2023/03/14 07:21:24;;;;;;;8.18;1.42;;;4.70;99.90;;;;;;5063535;28;20033;-71
2023/03/14 07:23:50;;;;;;;8.65;2.05;;;4.70;99.90;;;;;;5066630;28;20585;-71
2023/03/14 07:26:15;;;;;;;7.57;1.20;;;4.50;99.90;;;;;;5074430;28;20040;-71
2023/03/14 07:28:41;;;;;;;8.07;1.98;;;4.40;99.90;;;;;;5073571;28;20143;-71
2023/03/14 07:31:07;;;;;;;4.50;1.00;;;4.20;99.90;;;;;;5063243;28;20032;-71
2023/03/14 07:33:33;;;;;;;9.63;1.20;;;4.20;99.90;;;;;;5060440;28;20039;-71
2023/03/14 07:35:59;;;;;;;9.35;1.35;;;4.10;99.90;;;;;;5064453;28;20120;-72
2023/03/14 07:38:24;;;;;;;4.70;0.90;;;4.10;99.90;;;;;;5067243;28;20045;-72
2023/03/14 07:40:50;;;;;;;5.25;1.08;;;4.00;99.90;;;;;;5063589;28;20044;-72
2023/03/14 07:43:16;;;;;;;4.80;0.85;;;4.00;99.90;;;;;;5061943;28;20050;-71
2023/03/14 07:45:45;;;;;;;4.28;0.77;;;4.00;99.90;;;;;;5058906;28;20044;-71
2023/03/14 07:48:11;;;;;;;2.72;0.75;;;4.00;99.90;;;;;;5059933;28;20052;-71
2023/03/14 07:50:36;;;;;;;2.47;0.60;;;4.00;99.90;;;;;;5051416;28;20048;-71
2023/03/14 07:53:02;;;;;;;2.30;0.70;;;4.00;99.90;;;;;;5067324;28;20040;-71
2023/03/14 07:55:31;;;;;;;1.88;0.38;;;3.90;99.90;;;;;;5067106;28;20032;-71
2023/03/14 07:57:56;;;;;;;3.22;0.73;;;4.00;99.90;;;;;;5073449;28;20649;-71
2023/03/14 08:00:22;;;;;;;5.82;1.10;;;3.90;99.90;;;;;;5074835;28;20047;-71
2023/03/14 08:02:48;;;;;;;6.43;0.73;;;3.90;99.90;;;;;;5059293;28;20044;-71
2023/03/14 08:05:13;;;;;;;7.45;1.15;;;3.90;99.90;;;;;;5053870;28;20041;-71
2023/03/14 08:07:39;;;;;;;6.00;0.88;;;4.00;99.90;;;;;;5054385;28;20056;-72
2023/03/14 08:10:05;;;;;;;6.43;0.93;;;4.00;99.90;;;;;;5050853;28;20080;-71
2023/03/14 08:12:31;;;;;;;10.73;1.15;;;4.10;99.90;;;;;;5074033;28;20401;-71
2023/03/14 08:14:57;;;;;;;4.50;1.30;;;4.10;99.90;;;;;;5073044;28;20033;-71
2023/03/14 08:17:23;;;;;;;11.18;1.17;;;4.20;99.90;;;;;;5072752;28;20041;-71
2023/03/14 08:19:49;;;;;;;8.02;1.20;;;4.20;99.90;;;;;;5074301;28;20075;-71
2023/03/14 08:22:14;;;;;;;1.98;0.70;;;4.30;99.90;;;;;;5074463;28;20512;-72
2023/03/14 08:24:40;;;;;;;6.60;1.20;;;4.40;99.90;;;;;;5071259;28;20041;-71
2023/03/14 08:27:06;;;;;;;8.82;1.60;;;4.60;99.90;;;;;;5073607;28;20076;-71
2023/03/14 08:29:32;;;;;;;10.93;1.77;;;4.60;99.90;;;;;;5070606;28;20087;-71
2023/03/14 08:31:57;;;;;;;3.88;1.00;;;4.60;99.90;;;;;;5073300;28;20040;-72
2023/03/14 08:34:23;;;;;;;8.35;1.58;;;4.70;99.90;;;;;;5060683;28;20482;-72
2023/03/14 08:36:49;;;;;;;10.55;2.08;;;4.80;99.90;;;;;;5054278;28;20037;-71
2023/03/14 08:39:15;;;;;;;17.63;2.53;;;4.80;99.90;;;;;;5054290;28;20188;-72
2023/03/14 08:41:42;;;;;;;16.45;2.00;;;4.80;99.90;;;;;;5068739;28;20072;-72
2023/03/14 08:44:08;;;;;;;19.58;2.65;;;5.00;99.90;;;;;;5073931;28;20406;-71
2023/03/14 08:46:34;;;;;;;16.23;2.65;;;4.90;99.90;;;;;;5069626;28;20076;-71
2023/03/14 08:49:00;;;;;;;14.57;3.08;;;5.00;99.90;;;;;;5073700;28;20044;-72
2023/03/14 08:51:26;;;;;;;17.75;2.05;;;5.10;99.90;;;;;;5073785;28;20052;-71
2023/03/14 08:53:51;;;;;;;10.30;1.90;;;5.10;99.90;;;;;;5062626;28;20041;-72
2023/03/14 08:56:17;;;;;;;22.98;3.33;;;5.30;99.90;;;;;;5052624;28;20053;-71
2023/03/14 08:58:43;;;;;;;19.35;2.83;;;5.30;99.90;;;;;;5053509;28;20056;-72
2023/03/14 09:01:10;;;;;;;18.95;3.03;;;5.30;99.90;;;;;;5053105;28;20063;-72
2023/03/14 09:03:37;;;;;;;13.02;2.35;;;5.30;99.90;;;;;;5052884;28;20044;-71
2023/03/14 09:06:09;;;;;;;21.35;4.38;;;5.40;99.90;;;;;;5053179;28;20472;-71
2023/03/14 09:08:35;;;;;;;15.77;2.40;;;5.60;99.90;;;;;;5053096;28;20063;-71
2023/03/14 09:11:00;;;;;;;16.13;2.95;;;5.70;99.90;;;;;;5071449;28;20442;-72
2023/03/14 09:13:26;;;;;;;31.60;3.28;;;5.80;99.90;;;;;;5060815;28;20033;-72
2023/03/14 09:15:56;;;;;;;26.88;4.40;;;5.90;99.90;;;;;;5053243;28;20474;-71
2023/03/14 09:18:22;;;;;;;22.42;3.80;;;6.10;99.90;;;;;;5058159;28;20049;-71
2023/03/14 09:20:48;;;;;;;27.70;4.18;;;6.30;99.90;;;;;;5068654;28;20048;-72
2023/03/14 09:23:15;;;;;;;23.58;4.75;;;6.40;99.90;;;;;;5072704;28;20120;-71
2023/03/14 09:25:40;;;;;;;26.88;4.22;;;6.40;99.90;;;;;;5066711;28;20040;-72
2023/03/14 09:28:06;;;;;;;23.55;3.38;;;6.30;99.90;;;;;;5053167;28;20375;-72
2023/03/14 09:30:32;;;;;;;29.98;4.72;;;6.20;99.90;;;;;;5053021;28;20040;-71
2023/03/14 09:32:58;;;;;;;27.35;3.38;;;6.20;99.90;;;;;;5053449;28;20045;-72
2023/03/14 09:35:25;;;;;;;28.63;4.18;;;6.20;99.90;;;;;;5053785;28;20076;-71
2023/03/14 09:37:51;;;;;;;15.63;3.17;;;6.10;99.90;;;;;;5067389;28;20074;-71
2023/03/14 09:40:19;;;;;;;18.13;3.53;;;6.10;99.90;;;;;;5055219;28;20041;-71
2023/03/14 09:42:51;;;;;;;19.42;2.75;;;6.10;99.90;;;;;;5052549;28;20390;-72
2023/03/14 09:45:31;;;;;;;24.90;4.00;;;6.10;99.90;;;;;;5053399;28;20080;-72
2023/03/14 09:47:58;;;;;;;18.25;2.95;;;6.00;99.90;;;;;;5052889;28;20052;-72
2023/03/14 09:50:26;;;;;;;29.85;3.50;;;6.00;99.90;;;;;;5052075;28;20053;-71
2023/03/14 09:52:58;;;;;;;11.98;2.40;;;6.00;99.90;;;;;;5051638;28;20065;-72
2023/03/14 09:55:24;;;;;;;20.65;3.03;;;6.10;99.90;;;;;;5052344;28;20521;-71
2023/03/14 09:57:56;;;;;;;22.88;4.45;;;6.10;99.90;;;;;;5052382;28;20116;-70
2023/03/14 10:00:26;;;;;;;22.48;4.47;;;6.10;99.90;;;;;;5052738;28;20044;-70
2023/03/14 10:02:59;;;;;;;30.27;4.88;;;6.10;99.90;;;;;;5053428;28;20045;-70
2023/03/14 10:05:27;;;;;;;22.65;4.35;;;6.10;99.90;;;;;;5034574;28;20056;-70
2023/03/14 10:07:53;;;;;;;;;;;6.00;99.90;;;;;;5068323;28;20048;-71
2023/03/14 10:10:24;;;;;;;15.48;3.42;;;6.10;99.90;;;;;;5062506;28;19940;-70
2023/03/14 10:13:12;;;;;;;20.70;2.63;;;6.10;99.90;;;;;;5052943;28;20044;-70
2023/03/14 10:15:38;;;;;;;15.25;2.53;;;6.10;99.90;;;;;;5052528;28;20052;-70
2023/03/14 10:18:11;;;;;;;18.17;4.22;;;6.20;99.90;;;;;;5067279;28;20044;-70
2023/03/14 10:20:46;;;;;;;19.00;3.17;;;6.20;99.90;;;;;;5050951;28;20052;-70
2023/03/14 10:23:12;;;;;;;31.08;3.58;;;6.30;99.90;;;;;;5053561;28;20073;-70
2023/03/14 10:25:40;;;;;;;20.52;3.88;;;6.40;99.90;;;;;;5053154;28;20087;-70
2023/03/14 10:28:24;;;;;;;18.90;3.40;;;6.50;99.90;;;;;;5055216;28;20434;-70
2023/03/14 10:30:50;;;;;;;11.38;2.63;;;6.50;99.90;;;;;;5052454;28;20164;-70
2023/03/14 10:33:18;;;;;;;24.98;3.30;;;6.50;99.90;;;;;;5052010;28;20124;-70
2023/03/14 10:35:45;;;;;;;15.63;2.78;;;6.50;99.90;;;;;;5051948;28;20402;-70
2023/03/14 10:38:16;;;;;;;25.52;3.67;;;6.60;99.90;;;;;;5051625;28;20044;-70
2023/03/14 10:40:49;;;;;;;14.85;2.28;;;6.70;99.90;;;;;;5051546;28;20279;-70
2023/03/14 10:43:24;;;;;;;12.70;2.28;;;6.80;99.90;;;;;;5051857;28;20480;-70
2023/03/14 10:45:58;;;;;;;12.15;2.33;;;6.70;99.90;;;;;;5051882;28;20343;-70
2023/03/14 10:48:30;;;;;;;14.73;2.58;;;7.00;99.90;;;;;;5051903;28;20049;-71
2023/03/14 10:51:03;;;;;;;13.55;3.15;;;7.40;99.90;;;;;;5051270;28;20110;-71
2023/03/14 10:53:44;;;;;;;14.85;2.78;;;7.60;99.90;;;;;;5050017;28;20542;-71
2023/03/14 10:56:15;;;;;;;10.63;2.30;;;7.60;99.90;;;;;;5055250;28;20052;-70
2023/03/14 10:58:44;;;;;;;19.23;3.45;;;7.40;99.90;;;;;;5071598;28;20109;-71
2023/03/14 11:01:16;;;;;;;12.65;2.30;;;7.20;99.90;;;;;;5064518;28;20036;-71
2023/03/14 11:03:49;;;;;;;12.27;2.38;;;7.60;99.90;;;;;;5075441;28;20045;-70
2023/03/14 11:06:30;;;;;;;13.93;2.50;;;7.40;99.90;;;;;;5075710;28;20425;-70
2023/03/14 11:09:06;;;;;;;11.35;2.13;;;7.30;99.90;;;;;;5055849;28;20102;-70
2023/03/14 11:11:32;;;;;;;13.13;2.78;;;7.40;99.90;;;;;;5055701;28;20151;-70
2023/03/14 11:14:13;;;;;;;14.65;1.85;;;7.90;99.90;;;;;;5060110;28;20509;-71
2023/03/14 11:17:14;;;;;;;5.10;1.63;;;8.60;99.90;;;;;;5075066;28;20052;-70
2023/03/14 11:19:45;;;;;;;;;;;8.60;99.90;;;;;;5075161;28;20045;-70
2023/03/14 11:22:13;;;;;;;13.43;1.92;;;8.40;99.90;;;;;;5074958;28;20435;-70
2023/03/14 11:25:17;;;;;;;9.70;1.83;;;8.20;99.90;;;;;;5074774;28;20044;-70
2023/03/14 11:27:48;;;;;;;10.40;1.65;;;7.80;98.70;;;;;;5074430;28;20055;-70
2023/03/14 11:30:30;;;;;;;5.97;1.70;;;7.80;99.90;;;;;;5055261;28;20112;-70
2023/03/14 11:33:12;;;;;;;14.32;2.17;;;8.20;99.90;;;;;;5053327;28;20073;-70
2023/03/14 11:35:50;;;;;;;7.28;1.38;;;8.40;97.70;;;;;;5053419;28;20194;-70
2023/03/14 11:38:39;;;;;;;10.68;1.80;;;8.40;96.60;;;;;;5064815;28;20433;-70
2023/03/14 11:41:12;;;;;;;7.18;1.33;;;8.60;95.60;;;;;;5058723;28;20041;-70
2023/03/14 11:43:42;;;;;;;10.60;1.75;;;8.90;95.40;;;;;;5075097;28;20063;-70
2023/03/14 11:46:17;;;;;;;4.43;1.45;;;9.20;94.30;;;;;;5074937;28;20052;-70
2023/03/14 11:49:13;;;;;;;7.68;1.85;;;9.40;93.40;;;;;;5074974;28;20054;-70
2023/03/14 11:51:42;;;;;;;8.52;1.50;;;9.10;94.40;;;;;;5068220;28;20048;-70
2023/03/14 11:54:19;;;;;;;11.50;1.95;;;8.60;95.20;;;;;;5054500;28;20056;-70
2023/03/14 11:56:54;;;;;;;11.52;1.80;;;8.60;95.70;;;;;;5054830;28;20133;-70
2023/03/14 11:59:39;;;;;;;10.88;1.75;;;8.90;96.30;;;;;;5053048;28;20055;-70
2023/03/14 12:02:16;;;;;;;13.20;1.80;;;8.90;93.40;;;;;;5064266;28;20485;-70
2023/03/14 12:04:56;;;;;;;7.50;2.00;;;8.70;95.00;;;;;;5074271;28;20395;-70
2023/03/14 12:07:29;;;;;;;8.20;1.67;;;8.40;94.70;;;;;;5054998;28;20174;-70
2023/03/14 12:09:56;;;;;;;20.13;2.30;;;8.40;94.50;;;;;;5054065;28;20041;-70
2023/03/14 12:12:27;;;;;;;12.48;2.55;;;7.90;96.00;;;;;;5053875;28;20047;-69
2023/03/14 12:15:01;;;;;;;6.93;1.80;;;7.80;96.70;;;;;;5054423;28;20052;-70
2023/03/14 12:17:42;;;;;;;6.20;2.33;;;7.80;98.40;;;;;;5054868;28;20374;-70
2023/03/14 12:20:20;;;;;;;18.08;2.80;;;7.50;98.40;;;;;;5054313;28;20033;-70
2023/03/14 12:22:47;;;;;;;10.68;2.15;;;7.40;98.20;;;;;;5053060;28;20714;-70
2023/03/14 12:25:28;;;;;;;13.25;2.40;;;7.30;98.70;;;;;;5069977;28;20187;-69
2023/03/14 12:27:56;;;;;;;13.02;2.80;;;7.10;99.30;;;;;;5055796;28;20049;-69
2023/03/14 12:30:36;;;;;;;7.93;1.83;;;7.10;99.40;;;;;;5058103;28;20135;-70
2023/03/14 12:33:17;;;;;;;8.05;2.00;;;7.00;99.10;;;;;;5073088;28;20048;-70
2023/03/14 12:35:58;;;;;;;11.05;1.88;;;7.00;99.50;;;;;;5071040;28;20091;-70
2023/03/14 12:38:35;;;;;;;10.55;2.47;;;6.90;99.90;;;;;;5073511;28;20081;-70
2023/03/14 12:41:16;;;;;;;16.67;2.33;;;6.80;99.90;;;;;;5064303;28;20409;-70
2023/03/14 12:43:42;;;;;;;16.15;2.60;;;6.70;99.90;;;;;;5053393;28;20043;-70
2023/03/14 12:46:27;;;;;;;10.40;2.00;;;6.60;99.90;;;;;;5053249;28;20111;-70
2023/03/14 12:49:02;;;;;;;16.35;1.73;;;6.70;99.90;;;;;;5053716;28;20128;-70
2023/03/14 12:51:36;;;;;;;15.13;2.90;;;6.60;99.90;;;;;;5062651;28;20095;-71
2023/03/14 12:54:26;;;;;;;11.32;2.45;;;6.50;99.90;;;;;;5056627;28;20072;-71
2023/03/14 12:57:33;;;;;;;13.50;2.70;;;6.50;99.90;;;;;;5052116;28;20136;-71
2023/03/14 13:00:07;;;;;;;13.50;2.53;;;6.40;99.90;;;;;;5069004;28;20040;-71